createdAt,value
2023-01-01T00:01:11.122Z,17.76
2023-01-01T00:08:12.817Z,17.82
2023-01-01T00:15:14.566Z,17.54
2023-01-01T00:22:52.855Z,17.56
2023-01-01T00:29:37.889Z,17.40
2023-01-01T00:36:39.578Z,17.63
2023-01-01T00:43:41.231Z,17.43
2023-01-01T00:50:42.943Z,17.59
2023-01-01T00:57:44.593Z,17.39
2023-01-01T01:04:46.491Z,17.34
2023-01-01T01:11:48.186Z,17.52
2023-01-01T01:18:51.619Z,17.71
2023-01-01T01:25:53.258Z,17.39
2023-01-01T01:32:54.972Z,17.63
2023-01-01T01:39:56.687Z,17.62
2023-01-01T01:46:58.387Z,17.53
2023-01-01T01:54:02.341Z,17.41
2023-01-01T02:01:04.317Z,17.30
2023-01-01T02:08:06.297Z,17.33
2023-01-01T02:15:08.459Z,17.44
2023-01-01T02:22:15.194Z,17.59
2023-01-01T02:29:30.727Z,17.55
2023-01-01T02:36:33.205Z,17.50
2023-01-01T02:43:34.786Z,17.28
2023-01-01T02:50:36.584Z,17.35
2023-01-01T02:57:43.344Z,17.30
2023-01-01T03:05:01.457Z,17.53
2023-01-01T03:12:07.041Z,17.15
2023-01-01T03:19:12.090Z,17.29
2023-01-01T03:26:14.496Z,17.19
2023-01-01T03:33:18.867Z,17.03
2023-01-01T03:40:20.540Z,17.09
2023-01-01T03:47:22.176Z,17.06
2023-01-01T03:54:47.985Z,16.86
2023-01-01T04:01:53.718Z,17.04
2023-01-01T04:08:56.822Z,16.92
2023-01-01T04:15:58.531Z,17.02
2023-01-01T04:23:00.545Z,16.80
2023-01-01T04:30:02.245Z,16.94
2023-01-01T04:37:06.989Z,16.79
2023-01-01T04:44:12.973Z,16.94
2023-01-01T04:51:15.524Z,16.67
2023-01-01T04:58:17.564Z,16.70
2023-01-01T05:05:19.222Z,16.90
2023-01-01T05:12:20.900Z,16.89
2023-01-01T05:19:22.633Z,16.66
2023-01-01T05:26:27.107Z,16.83
2023-01-01T05:33:28.955Z,16.91
2023-01-01T05:40:30.959Z,16.69
2023-01-01T05:47:32.623Z,16.82
2023-01-01T05:54:34.288Z,16.67
2023-01-01T06:01:41.788Z,16.80
2023-01-01T06:08:54.081Z,16.63
2023-01-01T06:16:00.009Z,16.75
2023-01-01T06:23:01.676Z,16.66
2023-01-01T06:30:07.067Z,16.66
2023-01-01T06:37:08.802Z,16.59
2023-01-01T06:44:10.449Z,16.80
2023-01-01T06:51:15.583Z,16.68
2023-01-01T06:58:17.261Z,16.61
2023-01-01T07:05:18.929Z,16.60
2023-01-01T07:12:20.611Z,16.43
2023-01-01T07:19:22.243Z,16.61
2023-01-01T07:26:27.239Z,16.63
2023-01-01T07:33:28.844Z,16.83
2023-01-01T07:40:30.490Z,16.78
2023-01-01T07:47:32.919Z,16.65
2023-01-01T07:54:34.535Z,16.66
2023-01-01T08:01:37.371Z,16.97
2023-01-01T08:08:39.538Z,16.69
2023-01-01T08:15:41.312Z,16.67
2023-01-01T08:22:43.024Z,17.01
2023-01-01T08:29:44.812Z,17.07
2023-01-01T08:36:46.435Z,17.14
2023-01-01T08:43:48.169Z,17.18
2023-01-01T08:50:56.565Z,17.14
2023-01-01T08:57:58.298Z,17.27
2023-01-01T09:04:59.915Z,17.24
2023-01-01T09:12:05.801Z,17.26
2023-01-01T09:19:07.453Z,17.32
2023-01-01T09:26:09.689Z,17.34
2023-01-01T09:33:11.321Z,17.45
2023-01-01T09:40:31.712Z,17.15
2023-01-01T09:47:37.203Z,17.32
2023-01-01T09:54:41.333Z,17.41
2023-01-01T10:02:04.286Z,17.37
2023-01-01T10:09:32.614Z,17.47
2023-01-01T10:16:45.602Z,17.66
2023-01-01T10:24:02.777Z,17.98
2023-01-01T10:31:15.724Z,17.82
2023-01-01T10:38:24.738Z,17.73
2023-01-01T10:45:35.242Z,17.83
2023-01-01T10:52:39.715Z,17.72
2023-01-01T10:59:45.601Z,17.67
2023-01-01T11:06:51.754Z,17.83
2023-01-01T11:13:54.424Z,17.85
2023-01-01T11:20:56.765Z,17.81
2023-01-01T11:28:20.296Z,17.91
2023-01-01T11:35:23.830Z,17.79
2023-01-01T11:42:34.643Z,17.70
2023-01-01T11:49:37.050Z,18.07
2023-01-01T11:56:53.510Z,18.22
2023-01-01T12:04:08.225Z,18.16
2023-01-01T12:11:21.467Z,18.35
2023-01-01T12:18:37.484Z,18.22
2023-01-01T12:25:40.523Z,18.18
2023-01-01T12:33:07.829Z,18.18
2023-01-01T12:40:40.603Z,18.42
2023-01-01T12:47:59.367Z,18.34
2023-01-01T12:55:36.411Z,18.17
2023-01-01T13:02:38.182Z,18.33
2023-01-01T13:09:45.192Z,18.34
2023-01-01T13:16:50.559Z,18.44
2023-01-01T13:23:52.263Z,18.24
2023-01-01T13:30:53.975Z,18.20
2023-01-01T13:37:56.720Z,18.16
2023-01-01T13:44:58.365Z,18.11
2023-01-01T13:52:21.877Z,17.99
2023-01-01T13:59:46.037Z,18.23
2023-01-01T14:06:49.457Z,17.81
2023-01-01T14:13:51.123Z,17.75
2023-01-01T14:20:52.981Z,17.53
2023-01-01T14:27:55.353Z,17.59
2023-01-01T14:35:01.671Z,17.38
2023-01-01T14:42:15.421Z,17.24
2023-01-01T14:49:19.767Z,17.13
2023-01-01T14:56:30.298Z,17.17
2023-01-01T15:03:31.925Z,17.24
2023-01-01T15:10:35.279Z,17.16
2023-01-01T15:17:54.982Z,17.06
2023-01-01T15:24:56.986Z,17.05
2023-01-01T15:32:01.097Z,17.08
2023-01-01T15:39:02.803Z,17.02
2023-01-01T15:46:22.177Z,17.02
2023-01-01T15:53:31.782Z,17.02
2023-01-01T16:00:38.492Z,16.93
2023-01-01T16:07:40.122Z,16.76
2023-01-01T16:14:41.789Z,16.71
2023-01-01T16:21:43.467Z,16.52
2023-01-01T16:28:45.161Z,16.37
2023-01-01T16:35:47.088Z,16.20
2023-01-01T16:42:48.752Z,16.12
2023-01-01T16:49:50.421Z,16.01
2023-01-01T16:56:52.095Z,15.98
2023-01-01T17:03:53.849Z,15.93
2023-01-01T17:11:10.896Z,15.87
2023-01-01T17:18:13.459Z,15.82
2023-01-01T17:25:15.210Z,15.78
2023-01-01T17:32:16.882Z,15.78
2023-01-01T17:39:18.528Z,15.74
2023-01-01T17:46:22.177Z,15.78
2023-01-01T17:53:23.839Z,15.72
2023-01-01T18:00:25.442Z,15.76
2023-01-01T18:07:27.168Z,15.61
2023-01-01T18:14:28.952Z,15.68
2023-01-01T18:21:30.813Z,15.54
2023-01-01T18:28:32.825Z,15.51
2023-01-01T18:35:34.468Z,15.53
2023-01-01T18:42:43.707Z,15.42
2023-01-01T18:50:02.941Z,15.30
2023-01-01T18:57:07.608Z,15.24
2023-01-01T19:04:10.720Z,15.11
2023-01-01T19:11:12.575Z,15.19
2023-01-01T19:18:19.457Z,15.22
2023-01-01T19:25:37.104Z,15.37
2023-01-01T19:32:38.939Z,15.15
2023-01-01T19:39:40.638Z,15.28
2023-01-01T19:46:42.398Z,15.23
2023-01-01T19:53:44.172Z,15.49
2023-01-01T20:00:45.944Z,15.56
2023-01-01T20:07:47.658Z,15.27
2023-01-01T20:14:50.161Z,15.31
2023-01-01T20:22:10.627Z,15.30
2023-01-01T20:29:21.352Z,15.22
2023-01-01T20:36:41.537Z,15.31
2023-01-01T20:43:43.286Z,15.24
2023-01-01T20:50:44.977Z,15.21
2023-01-01T20:57:46.575Z,15.22
2023-01-01T21:04:48.445Z,15.22
2023-01-01T21:11:50.115Z,15.16
2023-01-01T21:18:51.827Z,15.15
2023-01-01T21:25:53.398Z,15.18
2023-01-01T21:32:54.975Z,15.12
2023-01-01T21:39:56.629Z,15.05
2023-01-01T21:47:01.788Z,15.02
2023-01-01T21:54:09.747Z,15.12
2023-01-01T22:01:20.468Z,14.98
2023-01-01T22:08:25.220Z,15.12
2023-01-01T22:15:35.310Z,15.09
2023-01-01T22:22:37.035Z,15.10
2023-01-01T22:29:38.809Z,15.14
2023-01-01T22:36:40.477Z,15.08
2023-01-01T22:43:43.132Z,15.05
2023-01-01T22:50:44.987Z,15.14
2023-01-01T22:57:47.074Z,15.10
2023-01-01T23:04:48.691Z,15.01
2023-01-01T23:11:50.558Z,14.98
2023-01-01T23:18:52.268Z,14.99
2023-01-01T23:25:53.925Z,15.09
2023-01-01T23:32:55.623Z,15.08
2023-01-01T23:39:57.243Z,14.96
2023-01-01T23:46:59.241Z,14.97
2023-01-01T23:54:00.950Z,15.06
